Time;durP1;ratioP1;P1;durP2;ratioP2;P2;SDS_P1;SDS_P2;PMS_P1;PMS_P2;Temp;Humidity;BMP_temperature;BMP_pressure;BME280_temperature;BME280_humidity;BME280_pressure;Samples;Min_cycle;Max_cycle;Signal;HPM_P1;HPM_P2
2021/05/14 00:00:27;;;;;;;1.38;0.90;;;;;;;11.99;86.11;98259.16;5035461;28;20061;-64
2021/05/14 00:02:56;;;;;;;1.83;1.20;;;;;;;11.98;86.14;98258.31;5054543;28;20486;-63
2021/05/14 00:05:25;;;;;;;1.10;0.80;;;;;;;11.99;86.30;98260.00;5052647;28;20122;-64
2021/05/14 00:07:57;;;;;;;2.05;1.05;;;;;;;12.03;85.96;98265.84;5055608;28;20363;-63
2021/05/14 00:10:29;;;;;;;2.00;1.10;;;;;;;11.99;85.96;98265.13;5069076;28;20486;-64
2021/05/14 00:12:58;;;;;;;1.92;1.10;;;;;;;11.96;86.08;98254.13;5064864;28;20131;-63
2021/05/14 00:15:31;;;;;;;1.40;0.93;;;;;;;11.98;86.12;98260.88;5054043;28;20044;-65
2021/05/14 00:18:03;;;;;;;1.70;1.23;;;;;;;11.96;86.06;98262.63;5069470;28;20044;-63
2021/05/14 00:20:33;;;;;;;2.97;1.20;;;;;;;11.98;86.01;98257.47;5073064;28;20379;-66
2021/05/14 00:23:02;;;;;;;2.13;1.10;;;;;;;11.94;86.11;98251.63;5071538;28;20049;-64
2021/05/14 00:25:31;;;;;;;1.65;1.00;;;;;;;11.99;85.79;98265.13;5071137;28;20524;-64
2021/05/14 00:28:00;;;;;;;2.00;1.20;;;;;;;11.93;85.87;98264.44;5064789;28;20049;-64
2021/05/14 00:30:30;;;;;;;1.55;1.00;;;;;;;11.85;85.88;98254.44;5072255;28;20127;-64
2021/05/14 00:33:00;;;;;;;2.53;1.20;;;;;;;11.86;85.94;98258.66;5071690;28;20036;-63
2021/05/14 00:35:29;;;;;;;1.52;1.00;;;;;;;11.91;86.02;98261.94;5053196;28;20049;-64
2021/05/14 00:37:59;;;;;;;1.73;1.30;;;;;;;11.85;85.95;98262.09;5052706;28;20041;-64
2021/05/14 00:40:32;;;;;;;1.80;1.10;;;;;;;11.82;85.61;98257.09;5066398;28;20449;-64
2021/05/14 00:43:01;;;;;;;1.63;1.10;;;;;;;11.85;85.90;98267.22;5051248;28;20045;-64
2021/05/14 00:45:31;;;;;;;3.00;1.38;;;;;;;11.78;85.97;98260.59;5064339;28;20051;-64
2021/05/14 00:48:03;;;;;;;1.48;1.10;;;;;;;11.78;85.99;98264.91;5052925;28;20057;-64
2021/05/14 00:50:35;;;;;;;1.42;1.00;;;;;;;11.84;85.95;98265.53;5035029;28;20490;-64
2021/05/14 00:53:05;;;;;;;1.75;1.10;;;;;;;11.86;85.92;98262.94;5051938;28;20053;-64
2021/05/14 00:55:34;;;;;;;1.50;1.10;;;;;;;11.90;86.06;98274.78;5047948;28;20063;-65
2021/05/14 00:58:03;;;;;;;2.90;1.30;;;;;;;11.90;85.69;98265.34;5033635;28;20423;-63
2021/05/14 01:00:33;;;;;;;1.60;1.10;;;;;;;11.91;85.89;98277.28;5030874;28;20041;-64
2021/05/14 01:03:02;;;;;;;2.25;1.17;;;;;;;11.88;85.71;98276.50;5039261;28;20094;-64
2021/05/14 01:05:31;;;;;;;2.37;1.20;;;;;;;11.85;85.61;98274.88;5051313;28;20053;-65
2021/05/14 01:08:00;;;;;;;1.67;1.05;;;;;;;11.88;85.78;98277.34;5036519;28;20095;-64
2021/05/14 01:10:30;;;;;;;1.88;1.20;;;;;;;11.81;85.64;98268.19;5036444;28;20042;-65
2021/05/14 01:13:02;;;;;;;1.60;1.00;;;;;;;11.80;85.95;98269.09;5032618;28;20045;-64
2021/05/14 01:15:31;;;;;;;1.98;1.30;;;;;;;11.80;85.69;98269.09;5048769;28;20071;-70
2021/05/14 01:18:04;;;;;;;2.13;1.27;;;;;;;11.80;86.10;98266.53;5032389;28;20053;-65
2021/05/14 01:20:34;;;;;;;1.50;1.05;;;;;;;11.81;85.88;98280.97;5030319;28;20061;-65
2021/05/14 01:23:03;;;;;;;1.20;0.80;;;;;;;11.82;85.73;98272.44;5034565;28;20080;-65
2021/05/14 01:25:32;;;;;;;1.60;1.10;;;;;;;11.79;85.67;98269.09;5046496;28;20038;-64
2021/05/14 01:28:01;;;;;;;1.88;1.00;;;;;;;11.77;85.89;98269.16;5032439;28;20042;-65
2021/05/14 01:30:30;;;;;;;1.85;1.10;;;;;;;11.77;85.83;98274.28;5032457;28;20042;-65
2021/05/14 01:32:58;;;;;;;3.08;1.13;;;;;;;11.74;85.87;98266.69;5031914;28;20049;-65
2021/05/14 01:35:27;;;;;;;1.45;1.00;;;;;;;11.76;85.66;98267.47;5032354;28;20042;-66
2021/05/14 01:38:00;;;;;;;1.77;1.10;;;;;;;11.73;85.76;98262.47;5046277;28;20041;-67
2021/05/14 01:40:29;;;;;;;1.42;1.10;;;;;;;11.74;85.72;98269.25;5035431;28;20526;-64
2021/05/14 01:42:58;;;;;;;1.87;1.07;;;;;;;11.73;85.65;98262.47;5036755;28;20041;-65
2021/05/14 01:45:29;;;;;;;1.58;0.90;;;;;;;11.68;85.94;98255.81;5034633;28;20091;-64
2021/05/14 01:47:58;;;;;;;1.88;1.10;;;;;;;11.65;85.81;98266.06;5034713;28;20429;-64
2021/05/14 01:50:30;;;;;;;1.65;1.05;;;;;;;11.62;85.95;98263.59;5057864;28;20069;-64
2021/05/14 01:53:04;;;;;;;2.08;1.20;;;;;;;11.61;85.95;98267.88;5064008;28;20056;-64
2021/05/14 01:55:33;;;;;;;1.05;0.90;;;;;;;11.54;85.72;98266.34;5058702;28;20045;-63
2021/05/14 01:58:03;;;;;;;1.88;1.17;;;;;;;11.54;85.91;98271.47;5051116;28;20045;-63
2021/05/14 02:00:36;;;;;;;1.60;0.93;;;;;;;11.49;86.08;98273.34;5056505;28;20033;-63
2021/05/14 02:03:05;;;;;;;1.90;1.30;;;;;;;11.37;85.93;98261.69;5055920;28;20040;-64
2021/05/14 02:05:34;;;;;;;1.27;0.90;;;;;;;11.44;86.11;98270.88;5061119;28;20048;-64
2021/05/14 02:08:04;;;;;;;1.60;1.03;;;;;;;11.42;86.23;98256.50;5063314;28;20050;-66
2021/05/14 02:10:34;;;;;;;1.50;1.00;;;;;;;11.50;86.16;98267.31;5066235;28;20052;-64
2021/05/14 02:13:03;;;;;;;1.80;1.20;;;;;;;11.44;86.40;98270.06;5039873;28;20041;-68
2021/05/14 02:15:32;;;;;;;1.85;1.00;;;;;;;11.33;85.80;98257.56;5054029;28;20439;-64
2021/05/14 02:18:02;;;;;;;1.45;0.93;;;;;;;11.36;86.40;98254.94;5055082;28;20136;-65
2021/05/14 02:20:31;;;;;;;2.78;1.00;;;;;;;11.38;85.89;98262.53;5072534;28;20052;-64
2021/05/14 02:23:04;;;;;;;1.58;1.08;;;;;;;11.39;86.36;98282.13;5036494;28;20046;-63
2021/05/14 02:25:33;;;;;;;1.92;0.98;;;;;;;11.33;86.09;98288.22;5056468;28;20397;-65
2021/05/14 02:28:02;;;;;;;1.48;0.98;;;;;;;11.31;86.13;98286.56;5060471;28;20075;-64
2021/05/14 02:30:34;;;;;;;1.60;0.80;;;;;;;11.32;86.37;98280.59;5072728;28;20060;-67
2021/05/14 02:33:04;;;;;;;1.10;0.80;;;;;;;11.35;86.33;98283.06;5074072;28;20124;-66
2021/05/14 02:35:33;;;;;;;1.42;1.00;;;;;;;11.32;86.66;98275.50;5052981;28;20493;-65
2021/05/14 02:38:04;;;;;;;1.60;0.88;;;;;;;11.32;86.23;98280.59;5062450;28;20082;-64
2021/05/14 02:40:34;;;;;;;1.15;0.80;;;;;;;11.29;86.26;98280.69;5062546;28;20052;-64
2021/05/14 02:43:03;;;;;;;2.35;1.00;;;;;;;11.31;86.77;98279.75;5043772;28;20068;-65
2021/05/14 02:45:32;;;;;;;1.55;0.90;;;;;;;11.26;86.66;98285.84;5053810;28;20513;-66
2021/05/14 02:48:00;;;;;;;1.33;1.00;;;;;;;11.16;86.55;98271.63;5061801;28;20045;-67
2021/05/14 02:50:30;;;;;;;1.83;0.90;;;;;;;11.20;86.58;98284.31;5056610;28;20047;-66
2021/05/14 02:52:58;;;;;;;1.27;0.90;;;;;;;11.24;86.39;98282.50;5070043;28;20079;-67
2021/05/14 02:55:28;;;;;;;3.60;1.00;;;;;;;11.21;86.35;98283.41;5054620;28;20049;-66
2021/05/14 02:57:57;;;;;;;2.28;1.15;;;;;;;11.15;86.49;98272.53;5055014;28;20041;-66
2021/05/14 03:00:26;;;;;;;1.83;0.90;;;;;;;11.18;86.74;98283.50;5062665;28;20372;-66
2021/05/14 03:02:59;;;;;;;1.60;0.93;;;;;;;11.15;86.50;98288.69;5055584;28;20041;-66
2021/05/14 03:05:28;;;;;;;1.38;1.05;;;;;;;11.18;86.41;98285.22;5054863;28;20330;-67
2021/05/14 03:07:57;;;;;;;2.17;1.17;;;;;;;11.10;86.56;98274.38;5061276;28;20047;-66
2021/05/14 03:10:26;;;;;;;1.40;1.00;;;;;;;11.17;86.71;98281.00;5052965;28;20317;-67
2021/05/14 03:12:56;;;;;;;1.27;0.83;;;;;;;11.21;86.58;98287.69;5063900;28;20358;-67
2021/05/14 03:15:25;;;;;;;1.63;1.05;;;;;;;11.19;86.99;98284.34;5054796;28;20417;-66
2021/05/14 03:17:57;;;;;;;1.58;1.00;;;;;;;11.22;87.00;98289.38;5062807;28;20061;-66
2021/05/14 03:20:26;;;;;;;1.40;1.00;;;;;;;11.19;86.50;98294.56;5036277;28;20041;-67
2021/05/14 03:22:55;;;;;;;0.82;0.73;;;;;;;11.11;86.68;98296.47;5066328;28;20053;-67
2021/05/14 03:25:28;;;;;;;1.92;0.88;;;;;;;11.09;86.55;98298.22;5054141;28;20132;-66
2021/05/14 03:27:58;;;;;;;1.75;1.02;;;;;;;11.08;86.82;98286.34;5052808;28;20395;-67
2021/05/14 03:30:27;;;;;;;1.15;0.88;;;;;;;11.10;87.11;98294.78;5056856;28;20055;-67
2021/05/14 03:32:59;;;;;;;2.08;1.10;;;;;;;11.11;86.95;98291.38;5069271;28;20735;-66
2021/05/14 03:35:28;;;;;;;3.30;1.00;;;;;;;11.00;87.03;98280.56;5067477;28;20379;-66
2021/05/14 03:38:00;;;;;;;1.92;1.00;;;;;;;11.09;87.18;98299.06;5055380;28;20048;-66
2021/05/14 03:40:35;;;;;;;1.77;1.10;;;;;;;11.10;86.88;98294.78;5066854;28;20049;-67
2021/05/14 03:43:05;;;;;;;1.58;1.00;;;;;;;11.09;86.62;98301.59;5053338;28;20398;-69
2021/05/14 03:45:34;;;;;;;1.23;0.90;;;;;;;11.04;87.23;98294.94;5054060;28;20128;-65
2021/05/14 03:48:17;;;;;;;2.70;1.17;;;;;;;11.06;87.04;98304.22;5063932;28;20049;-68
2021/05/14 03:50:52;;;;;;;1.48;1.00;;;;;;;11.09;86.87;98313.53;5055435;28;20098;-68
2021/05/14 03:53:22;;;;;;;2.10;1.10;;;;;;;11.07;87.10;98310.19;5054239;28;20375;-66
2021/05/14 03:55:51;;;;;;;1.33;1.00;;;;;;;11.05;86.99;98299.16;5056117;28;20036;-67
2021/05/14 03:58:21;;;;;;;1.10;0.80;;;;;;;11.05;87.01;98314.50;5067225;28;20106;-67
2021/05/14 04:00:53;;;;;;;1.17;0.80;;;;;;;11.00;87.33;98316.31;5073322;28;20056;-67
2021/05/14 04:03:23;;;;;;;1.70;1.10;;;;;;;11.00;87.39;98317.16;5074480;28;20064;-66
2021/05/14 04:05:52;;;;;;;;;;;;;;;10.98;87.26;98316.38;5065594;28;20053;-66
2021/05/14 04:08:21;;;;;;;2.30;0.95;;;;;;;11.00;86.99;98318.88;5066356;28;20039;-66
2021/05/14 04:11:04;;;;;;;1.83;1.08;;;;;;;10.98;86.96;98318.91;5062298;28;20032;-68
2021/05/14 04:16:15;;;;;;;1.95;1.27;;;;;;;10.97;87.29;98324.03;5069734;28;20045;-67
2021/05/14 04:18:47;;;;;;;1.25;0.90;;;;;;;10.93;87.44;98318.19;5071487;28;20367;-66
2021/05/14 04:21:16;;;;;;;2.05;1.35;;;;;;;10.87;87.29;98317.50;5056591;28;20044;-67
2021/05/14 04:23:48;;;;;;;2.57;1.50;;;;;;;10.94;87.64;98324.94;5074032;28;20139;-66
2021/05/14 04:26:17;;;;;;;1.70;1.15;;;;;;;10.93;87.22;98322.44;5052521;28;20132;-66
2021/05/14 04:28:46;;;;;;;1.70;1.20;;;;;;;10.83;87.32;98318.44;5057771;28;20033;-67
2021/05/14 04:31:18;;;;;;;2.03;1.20;;;;;;;10.91;87.17;98329.31;5067634;28;20063;-66
2021/05/14 04:33:51;;;;;;;1.70;1.27;;;;;;;10.95;87.31;98330.91;5074002;28;20044;-64
2021/05/14 04:36:19;;;;;;;2.35;1.20;;;;;;;10.98;87.39;98335.94;5064760;28;20056;-67
2021/05/14 04:38:48;;;;;;;2.15;1.20;;;;;;;10.94;87.37;98334.34;5060647;28;20123;-65
2021/05/14 04:41:17;;;;;;;2.58;1.20;;;;;;;10.95;87.79;98336.84;5055651;28;20049;-66
2021/05/14 04:43:50;;;;;;;3.40;1.65;;;;;;;10.96;87.64;98335.97;5065159;28;20072;-63
2021/05/14 04:46:22;;;;;;;2.13;1.30;;;;;;;10.95;87.55;98328.34;5052709;28;20056;-64
2021/05/14 04:48:58;;;;;;;2.75;1.38;;;;;;;10.98;87.84;98339.34;5052341;28;20479;-64
2021/05/14 04:51:30;;;;;;;;;;;;;;;10.92;87.55;98342.00;5052058;28;20490;-64
2021/05/14 04:54:01;;;;;;;2.88;1.40;;;;;;;10.96;87.45;98342.78;5053645;28;19928;-65
2021/05/14 04:56:30;;;;;;;2.13;1.35;;;;;;;10.95;87.98;98341.94;5059982;28;20044;-63
2021/05/14 04:59:00;;;;;;;1.67;1.15;;;;;;;10.98;87.58;98341.03;5070923;28;20110;-64
2021/05/14 05:01:28;;;;;;;;;;;;;;;11.02;87.78;98347.75;5060779;28;20044;-68
2021/05/14 05:03:59;;;;;;;2.35;1.38;;;;;;;11.00;88.04;98349.50;5035659;28;19929;-65
2021/05/14 05:06:30;;;;;;;2.03;1.30;;;;;;;11.02;88.05;98347.75;5065891;28;20075;-64
2021/05/14 05:08:59;;;;;;;1.77;1.20;;;;;;;11.03;87.67;98344.31;5065405;28;20075;-66
2021/05/14 05:11:32;;;;;;;2.47;1.30;;;;;;;11.08;87.92;98347.59;5057118;28;20052;-65
2021/05/14 05:14:05;;;;;;;2.78;1.50;;;;;;;11.12;87.98;98354.31;5062590;28;20340;-64
2021/05/14 05:16:37;;;;;;;2.05;1.15;;;;;;;11.17;88.10;98347.38;5060650;28;20045;-64
2021/05/14 05:19:06;;;;;;;2.50;1.27;;;;;;;11.19;87.94;98353.28;5052489;28;20083;-65
2021/05/14 05:21:37;;;;;;;1.73;1.00;;;;;;;11.21;88.09;98356.63;5052500;28;20490;-65
2021/05/14 05:24:08;;;;;;;2.00;1.23;;;;;;;11.27;88.18;98364.16;5052520;28;20055;-65
2021/05/14 05:26:40;;;;;;;1.58;1.05;;;;;;;11.31;87.90;98368.31;5050918;28;20087;-65
2021/05/14 05:29:09;;;;;;;2.42;1.50;;;;;;;11.36;87.77;98361.38;5060000;28;20067;-65
2021/05/14 05:31:38;;;;;;;1.92;1.20;;;;;;;11.33;87.78;98364.84;5068431;28;20073;-65
2021/05/14 05:34:08;;;;;;;2.28;1.15;;;;;;;11.30;87.84;98367.47;5065028;28;20055;-65
2021/05/14 05:36:38;;;;;;;2.00;1.20;;;;;;;11.34;87.88;98370.78;5056259;28;20135;-66
2021/05/14 05:39:08;;;;;;;1.63;1.20;;;;;;;11.33;87.89;98375.06;5059039;28;20116;-65
2021/05/14 05:41:37;;;;;;;1.92;1.15;;;;;;;11.32;87.72;98378.50;5051413;28;20092;-66
2021/05/14 05:44:07;;;;;;;2.03;1.10;;;;;;;11.40;87.87;98375.72;5058084;28;20110;-67
2021/05/14 05:46:37;;;;;;;3.25;1.55;;;;;;;11.32;87.55;98383.59;5050573;28;20495;-67
2021/05/14 05:49:06;;;;;;;2.47;1.30;;;;;;;11.35;88.08;98382.66;5056564;28;20079;-65
2021/05/14 05:51:35;;;;;;;1.83;1.20;;;;;;;11.36;87.75;98387.75;5055697;28;20049;-66
2021/05/14 05:54:08;;;;;;;2.50;1.40;;;;;;;11.40;87.81;98391.06;5059360;28;20029;-66
2021/05/14 05:56:42;;;;;;;2.50;1.35;;;;;;;11.40;88.08;98386.78;5060609;28;20041;-66
2021/05/14 05:59:16;;;;;;;2.05;1.15;;;;;;;11.39;87.64;98394.50;5064747;28;20061;-66
2021/05/14 06:01:47;;;;;;;2.65;1.40;;;;;;;11.28;87.77;98381.13;5056635;28;20406;-66
2021/05/14 06:04:17;;;;;;;3.00;1.42;;;;;;;11.41;87.69;98405.53;5054335;28;20057;-67
2021/05/14 06:06:46;;;;;;;2.33;1.33;;;;;;;11.44;87.85;98403.72;5053553;28;20045;-66
2021/05/14 06:09:19;;;;;;;2.58;1.20;;;;;;;11.38;87.89;98408.16;5056480;28;20060;-66
2021/05/14 06:11:49;;;;;;;3.38;1.50;;;;;;;11.36;87.96;98407.34;5054816;28;20049;-68
2021/05/14 06:14:19;;;;;;;2.00;1.20;;;;;;;11.36;88.03;98415.84;5067407;28;20090;-67
2021/05/14 06:16:50;;;;;;;2.47;1.27;;;;;;;11.34;87.66;98414.22;5073330;28;20044;-66
2021/05/14 06:19:23;;;;;;;3.20;1.98;;;;;;;11.34;87.68;98417.63;5054945;28;20135;-71
2021/05/14 06:21:53;;;;;;;4.47;2.00;;;;;;;11.36;87.53;98409.91;5053171;28;20060;-69
2021/05/14 06:24:22;;;;;;;4.45;2.40;;;;;;;11.44;87.79;98418.22;5056375;28;20045;-67
2021/05/14 06:26:51;;;;;;;4.40;1.90;;;;;;;11.38;87.98;98413.25;5054647;28;20041;-66
2021/05/14 06:29:24;;;;;;;4.13;1.83;;;;;;;11.43;87.79;98427.59;5056099;28;20052;-66
2021/05/14 06:31:56;;;;;;;3.90;1.50;;;;;;;11.47;87.79;98423.25;5055733;28;20048;-68
2021/05/14 06:34:26;;;;;;;2.42;1.30;;;;;;;11.51;87.93;98429.97;5062127;28;20056;-67
2021/05/14 06:36:55;;;;;;;2.08;1.33;;;;;;;11.52;87.50;98436.75;5063943;28;20053;-67
2021/05/14 06:39:28;;;;;;;2.20;1.40;;;;;;;11.54;87.88;98437.53;5055471;28;20045;-67
2021/05/14 06:41:56;;;;;;;2.22;1.25;;;;;;;11.65;87.79;98440.69;5053201;28;20149;-72
2021/05/14 06:44:28;;;;;;;2.65;1.17;;;;;;;11.71;87.67;98445.66;5059630;28;20502;-69
2021/05/14 06:47:01;;;;;;;1.70;1.10;;;;;;;11.70;87.44;98446.56;5052717;28;20049;-69
2021/05/14 06:49:29;;;;;;;;;;;;;;;11.79;87.74;98446.31;5056670;28;20051;-69
2021/05/14 06:51:59;;;;;;;1.57;1.10;;;;;;;11.76;87.75;98451.50;5052023;28;20258;-71
2021/05/14 06:54:27;;;;;;;3.25;1.40;;;;;;;11.79;87.45;98448.03;5055405;28;20049;-69
2021/05/14 06:56:57;;;;;;;1.73;1.00;;;;;;;11.86;87.57;98458.06;5054710;28;20044;-68
2021/05/14 06:59:25;;;;;;;1.30;1.07;;;;;;;11.87;87.58;98459.75;5053507;28;20298;-68
2021/05/14 07:01:54;;;;;;;2.00;1.30;;;;;;;11.89;87.40;98458.00;5055826;28;20051;-68
2021/05/14 07:04:26;;;;;;;1.88;1.23;;;;;;;11.90;87.28;98458.84;5052563;28;20087;-68
2021/05/14 07:06:55;;;;;;;1.48;1.00;;;;;;;11.76;87.16;98446.38;5051716;28;20445;-70
2021/05/14 07:09:24;;;;;;;2.13;1.35;;;;;;;11.97;87.31;98458.63;5053597;28;20094;-68
2021/05/14 07:11:53;;;;;;;2.20;1.10;;;;;;;11.98;87.21;98469.69;5053316;28;20364;-67
2021/05/14 07:14:22;;;;;;;2.75;1.35;;;;;;;12.03;87.21;98466.16;5051367;28;20059;-66
2021/05/14 07:16:51;;;;;;;1.85;0.93;;;;;;;12.02;87.02;98472.13;5053871;28;20123;-68
2021/05/14 07:19:20;;;;;;;1.27;0.82;;;;;;;12.12;86.94;98471.91;5052217;28;20098;-66
2021/05/14 07:21:53;;;;;;;3.20;1.20;;;;;;;12.18;87.11;98474.28;5060519;28;20044;-71
2021/05/14 07:24:23;;;;;;;3.60;1.20;;;;;;;12.25;87.09;98475.81;5056856;28;20041;-68
2021/05/14 07:26:52;;;;;;;1.75;1.10;;;;;;;12.28;86.70;98476.56;5057423;28;20049;-67
2021/05/14 07:29:28;;;;;;;1.95;1.20;;;;;;;12.33;86.87;98479.00;5054550;28;20072;-67
2021/05/14 07:32:00;;;;;;;2.40;1.10;;;;;;;12.36;86.84;98468.66;5055163;28;20128;-68
2021/05/14 07:34:34;;;;;;;3.22;1.40;;;;;;;12.56;86.58;98471.53;5055069;28;20465;-68
2021/05/14 07:37:07;;;;;;;1.35;0.88;;;;;;;12.54;86.46;98478.41;5054596;28;20049;-68
2021/05/14 07:39:44;;;;;;;1.85;0.80;;;;;;;12.52;86.23;98480.19;5054517;28;20073;-66
2021/05/14 07:42:18;;;;;;;1.50;0.90;;;;;;;12.56;86.02;98476.63;5055245;28;20060;-68
2021/05/14 07:44:47;;;;;;;1.45;0.80;;;;;;;12.55;85.83;98480.06;5054887;28;20056;-68
2021/05/14 07:47:19;;;;;;;1.23;0.90;;;;;;;12.56;85.65;98486.88;5054699;28;20107;-66
2021/05/14 07:49:48;;;;;;;1.05;0.80;;;;;;;12.59;85.70;98491.91;5053292;28;20053;-67
2021/05/14 07:52:18;;;;;;;1.45;0.80;;;;;;;12.61;85.36;98492.72;5054650;28;20059;-68
2021/05/14 07:54:47;;;;;;;1.05;0.70;;;;;;;12.67;85.64;98495.09;5037138;28;20072;-68
2021/05/14 07:57:25;;;;;;;1.15;0.73;;;;;;;12.67;85.18;98495.09;5054706;28;20053;-68
2021/05/14 07:59:56;;;;;;;1.05;0.90;;;;;;;12.75;85.04;98490.59;5054318;28;20516;-68
2021/05/14 08:02:31;;;;;;;1.42;1.00;;;;;;;12.78;84.72;98493.06;5054839;28;20045;-68
2021/05/14 08:05:00;;;;;;;1.35;0.80;;;;;;;12.82;84.81;98497.22;5054728;28;20064;-68
2021/05/14 08:07:34;;;;;;;1.42;1.02;;;;;;;12.91;84.67;98503.81;5054307;28;20103;-68
2021/05/14 08:10:04;;;;;;;1.50;0.90;;;;;;;12.90;84.56;98502.97;5068889;28;20486;-68
2021/05/14 08:13:00;;;;;;;1.33;0.82;;;;;;;12.94;84.27;98509.66;5069211;28;20056;-68
2021/05/14 08:15:32;;;;;;;2.33;1.00;;;;;;;12.97;84.21;98514.72;5054305;28;20127;-67
2021/05/14 08:18:07;;;;;;;2.28;1.00;;;;;;;12.95;84.31;98513.91;5054068;28;20049;-67
2021/05/14 08:20:41;;;;;;;2.95;1.10;;;;;;;13.05;84.26;98515.31;5054128;28;20053;-68
2021/05/14 08:23:18;;;;;;;0.93;0.70;;;;;;;12.98;83.83;98513.00;5054217;28;20084;-68
2021/05/14 08:25:50;;;;;;;1.40;0.90;;;;;;;13.05;83.82;98525.53;5054164;28;20410;-67
2021/05/14 08:28:22;;;;;;;1.65;0.80;;;;;;;13.01;83.71;98526.53;5054136;28;20552;-67
2021/05/14 08:30:52;;;;;;;1.67;0.70;;;;;;;13.01;83.49;98525.69;5053918;28;20078;-67
2021/05/14 08:33:27;;;;;;;1.17;0.80;;;;;;;13.05;83.22;98529.84;5054003;28;20119;-67
2021/05/14 08:35:56;;;;;;;1.50;0.80;;;;;;;12.98;83.10;98531.72;5053851;28;20052;-67
2021/05/14 08:38:29;;;;;;;1.70;0.75;;;;;;;12.94;83.00;98545.53;5053849;28;20061;-67
2021/05/14 08:41:06;;;;;;;2.67;1.33;;;;;;;12.99;82.89;98548.78;5053930;28;20402;-67
2021/05/14 08:43:38;;;;;;;1.10;0.77;;;;;;;13.06;82.96;98539.22;5053652;28;20048;-67
2021/05/14 08:46:13;;;;;;;0.68;0.63;;;;;;;13.05;82.55;98548.59;5053826;28;20068;-67
2021/05/14 08:48:46;;;;;;;1.52;0.80;;;;;;;13.05;82.55;98553.72;5035142;28;20544;-66
2021/05/14 08:51:23;;;;;;;1.33;0.95;;;;;;;13.09;82.63;98557.94;5053761;28;20076;-67
2021/05/14 08:54:01;;;;;;;2.00;1.20;;;;;;;13.18;82.45;98549.97;5053444;28;20057;-67
2021/05/14 08:56:33;;;;;;;1.40;0.90;;;;;;;13.20;82.48;98558.44;5053827;28;20083;-66
2021/05/14 08:59:06;;;;;;;1.65;0.90;;;;;;;13.16;82.55;98556.88;5053716;28;20064;-67
2021/05/14 09:01:39;;;;;;;1.20;0.80;;;;;;;12.99;82.51;98548.78;5053340;28;20071;-66
2021/05/14 09:04:10;;;;;;;1.25;0.80;;;;;;;13.10;82.08;98562.16;5053502;28;20139;-66
2021/05/14 09:06:43;;;;;;;1.42;0.80;;;;;;;13.11;81.99;98568.97;5053627;28;20494;-66
2021/05/14 09:09:18;;;;;;;0.98;0.70;;;;;;;13.10;82.09;98571.59;5069300;28;20064;-67
2021/05/14 09:11:52;;;;;;;1.35;0.93;;;;;;;13.11;82.09;98574.09;5053427;28;20064;-66
2021/05/14 09:14:33;;;;;;;1.60;0.90;;;;;;;13.15;81.99;98580.78;5053751;28;20429;-66
2021/05/14 09:17:07;;;;;;;2.67;1.20;;;;;;;13.24;82.21;98585.69;5053791;28;20061;-66
2021/05/14 09:19:40;;;;;;;2.70;1.20;;;;;;;13.20;81.96;98584.06;5053800;28;20502;-66
2021/05/14 09:22:11;;;;;;;1.83;1.10;;;;;;;13.20;81.87;98599.44;5055283;28;20448;-66
2021/05/14 09:24:47;;;;;;;1.45;0.90;;;;;;;13.07;82.03;98567.38;5057460;28;20057;-66
2021/05/14 09:27:30;;;;;;;1.85;1.10;;;;;;;13.25;82.00;98591.63;5057255;28;20548;-66
2021/05/14 09:30:01;;;;;;;1.20;0.80;;;;;;;13.25;81.60;98601.88;5057426;28;20147;-66
2021/05/14 09:32:35;;;;;;;1.20;0.68;;;;;;;13.29;81.94;98599.16;5057605;28;20060;-65
2021/05/14 09:35:07;;;;;;;1.55;0.93;;;;;;;13.31;81.72;98601.69;5057584;28;20539;-66
2021/05/14 09:37:50;;;;;;;0.90;0.70;;;;;;;13.26;81.83;98603.56;5057258;28;20078;-65
2021/05/14 09:40:25;;;;;;;0.75;0.68;;;;;;;13.22;81.47;98605.34;5057096;28;20053;-65
2021/05/14 09:43:00;;;;;;;1.83;0.82;;;;;;;13.24;81.41;98608.75;5057224;28;20056;-64
2021/05/14 09:45:29;;;;;;;1.58;0.82;;;;;;;13.26;81.23;98608.69;5056879;28;20059;-65
2021/05/14 09:48:14;;;;;;;0.80;0.80;;;;;;;13.25;81.26;98617.25;5057343;28;20094;-65
2021/05/14 09:50:50;;;;;;;1.92;0.90;;;;;;;13.25;81.14;98622.38;5056731;28;20057;-66
2021/05/14 09:53:20;;;;;;;2.42;1.50;;;;;;;13.27;81.34;98625.72;5057012;28;20128;-65
2021/05/14 09:55:56;;;;;;;1.13;0.70;;;;;;;13.28;80.88;98620.56;5056882;28;20052;-64
2021/05/14 09:58:31;;;;;;;2.55;0.73;;;;;;;13.25;80.29;98622.38;5056670;28;20084;-66
2021/05/14 10:01:03;;;;;;;1.38;0.90;;;;;;;13.21;80.44;98621.63;5056777;28;20049;-66
2021/05/14 10:03:35;;;;;;;1.80;0.80;;;;;;;13.28;80.31;98633.38;5056975;28;20049;-66
2021/05/14 10:06:08;;;;;;;1.73;0.82;;;;;;;13.24;80.17;98631.78;5039065;28;20513;-64
2021/05/14 10:08:48;;;;;;;3.22;0.95;;;;;;;13.23;80.37;98635.22;5056697;28;20060;-65
2021/05/14 10:11:22;;;;;;;2.28;0.95;;;;;;;13.22;80.26;98633.53;5056626;28;20401;-65
2021/05/14 10:13:54;;;;;;;1.33;0.90;;;;;;;13.24;80.52;98636.91;5056509;28;20064;-65
2021/05/14 10:16:23;;;;;;;2.08;1.05;;;;;;;13.26;80.38;98637.72;5056230;28;20114;-65
2021/05/14 10:18:57;;;;;;;1.15;0.80;;;;;;;13.16;80.15;98636.28;5056388;28;20052;-66
2021/05/14 10:21:27;;;;;;;2.85;0.80;;;;;;;13.15;80.35;98637.16;5056183;28;20071;-65
2021/05/14 10:24:00;;;;;;;1.52;0.82;;;;;;;13.15;80.34;98642.28;5056397;28;20053;-66
2021/05/14 10:26:40;;;;;;;1.58;0.98;;;;;;;13.10;80.29;98641.56;5056215;28;20057;-67
2021/05/14 10:29:13;;;;;;;1.95;0.90;;;;;;;13.15;80.13;98642.28;5056668;28;20536;-66
2021/05/14 10:31:47;;;;;;;1.25;0.77;;;;;;;13.23;80.12;98649.75;5056123;28;20079;-65
2021/05/14 10:34:20;;;;;;;1.48;0.85;;;;;;;13.29;80.03;98644.47;5055397;28;20053;-67
2021/05/14 10:36:52;;;;;;;1.95;1.00;;;;;;;13.31;79.92;98638.44;5056218;28;20053;-65
2021/05/14 10:39:32;;;;;;;1.27;0.82;;;;;;;13.37;79.82;98651.06;5055655;28;20383;-67
2021/05/14 10:42:13;;;;;;;1.13;0.88;;;;;;;13.44;79.94;98649.13;5055859;28;20069;-67
2021/05/14 10:44:48;;;;;;;1.48;0.85;;;;;;;13.48;79.53;98660.16;5055875;28;20075;-66
2021/05/14 10:47:47;;;;;;;2.55;1.00;;;;;;;13.52;79.66;98661.75;5055914;28;20556;-65
2021/05/14 10:50:40;;;;;;;1.65;0.90;;;;;;;13.55;79.40;98661.66;5054026;28;20128;-67
2021/05/14 10:53:28;;;;;;;5.72;2.00;;;;;;;13.53;79.10;98664.28;5055644;28;20143;-67
2021/05/14 10:56:41;;;;;;;3.40;1.52;;;;;;;13.50;79.04;98677.19;5056091;28;20045;-65
2021/05/14 10:59:12;;;;;;;2.25;1.10;;;;;;;13.42;79.24;98672.25;5049092;28;20094;-67
2021/05/14 11:01:45;;;;;;;2.60;1.10;;;;;;;13.36;78.83;98680.13;5055554;28;20060;-67
2021/05/14 11:04:38;;;;;;;1.85;1.00;;;;;;;13.41;79.48;98685.94;5055910;28;20103;-65
2021/05/14 11:07:30;;;;;;;2.15;1.00;;;;;;;13.38;78.86;98692.91;5055382;28;20056;-68
2021/05/14 11:10:21;;;;;;;3.38;1.20;;;;;;;13.42;79.02;98687.66;5055470;28;20061;-67
2021/05/14 11:12:53;;;;;;;2.33;1.13;;;;;;;13.40;79.21;98696.25;5055539;28;20049;-67
2021/05/14 11:15:37;;;;;;;2.63;1.23;;;;;;;13.40;79.11;98693.69;5055366;28;20056;-66
2021/05/14 11:18:23;;;;;;;1.65;1.00;;;;;;;13.43;79.50;98693.63;5056018;28;20045;-66
2021/05/14 11:20:59;;;;;;;2.13;1.17;;;;;;;13.46;79.29;98690.13;5055288;28;20049;-65
2021/05/14 11:23:38;;;;;;;1.77;1.05;;;;;;;13.42;79.61;98695.34;5055311;28;20068;-65
2021/05/14 11:26:08;;;;;;;1.73;1.00;;;;;;;13.41;79.21;98696.19;5055400;28;20103;-66
2021/05/14 11:28:42;;;;;;;1.63;1.08;;;;;;;13.37;79.29;98693.78;5055208;28;20076;-68
2021/05/14 11:31:17;;;;;;;1.85;1.10;;;;;;;13.35;79.27;98701.50;5055212;28;20052;-65
2021/05/14 11:33:50;;;;;;;1.70;1.10;;;;;;;13.28;79.10;98705.13;5055132;28;20052;-67
2021/05/14 11:36:26;;;;;;;2.30;1.23;;;;;;;13.19;78.98;98699.41;5055073;28;20064;-66
2021/05/14 11:38:58;;;;;;;2.45;1.30;;;;;;;13.15;79.02;98716.56;5055081;28;20055;-67
2021/05/14 11:41:32;;;;;;;2.65;1.38;;;;;;;13.20;78.90;98708.75;5054799;28;20055;-68
2021/05/14 11:44:03;;;;;;;2.55;1.35;;;;;;;13.26;79.01;98712.03;5054803;28;20490;-67
2021/05/14 11:46:36;;;;;;;2.22;1.17;;;;;;;13.26;79.26;98717.16;5054669;28;20041;-65
2021/05/14 11:49:10;;;;;;;2.22;1.23;;;;;;;13.28;78.76;98723.06;5054899;28;20127;-69
2021/05/14 11:51:47;;;;;;;4.47;1.60;;;;;;;13.29;78.89;98719.59;5054785;28;20097;-65
2021/05/14 11:54:19;;;;;;;2.30;1.30;;;;;;;13.26;78.96;98722.28;5036993;28;20049;-69
2021/05/14 11:56:48;;;;;;;4.45;1.45;;;;;;;13.26;78.79;98722.28;5054516;28;20103;-69
2021/05/14 11:59:21;;;;;;;2.80;1.73;;;;;;;13.27;79.11;98731.63;5054375;28;20051;-68